• Join FlightAware (Why Join?)
  • Login
  • US Flag 
04:40PM EDT


 

Airport Tracker/Info


-or-


 

Live Flight TrackerFlight Track Log ✈ EJA929 ✈ 27-Feb-2014 ✈ KPDK - KPBI

Flight Track Log - Related Links

Times and Time Zones

All times are in EST time to prevent confusion due to time zone crossing. See the EJA929 flight status page for this flight to view local times or setup timezone preferences in your user account.

Time Position Orientation Groundspeed Altitude Reporting Facility
EST Latitude Longitude Course Direction KTS MPH feet Rate Location/Type
02:27PM 33.9333 -84.2667 157° South 217 250 3,800  Level Atlanta TRACON
02:28PM 34.0000 -84.2333 23° Northeast 249 287 5,900 1,080 Climbing Atlanta TRACON
02:29PM 34.0500 -84.2500 345° North 253 291 6,000  Climbing Atlanta TRACON
02:30PM 33.9833 -84.3167 220° Southwest 263 303 6,000  Level Atlanta TRACON
02:31PM 33.9333 -84.3667 220° Southwest 269 310 6,000  Level Atlanta TRACON
02:32PM 33.1599 -83.8501 157° South  Level Estimated
02:32PM 33.8667 -84.3833 192° South 286 329 6,000  Level Atlanta TRACON
02:33PM 33.7833 -84.3833 180° South 285 328 6,000  Level Atlanta TRACON
02:34PM 33.7000 -84.3833 180° South 288 331 6,000  Level Atlanta TRACON
02:35PM 33.6167 -84.3833 180° South 302 348 6,000  Level Atlanta TRACON
02:36PM 33.5333 -84.3833 180° South 288 331 6,000  Level Atlanta TRACON
02:37PM 33.4667 -84.3833 180° South 284 327 6,000 1,260 Level Atlanta TRACON
02:38PM 33.3833 -84.3833 180° South 303 349 8,600 2,880 Climbing Atlanta TRACON
02:39PM 33.3000 -84.3667 171° South 316 364 11,800 2,580 Climbing Atlanta TRACON
02:40PM 33.1678 -84.3589 177° South 367 422 14,500 2,220 Climbing Atlanta Center
02:41PM 33.0656 -84.3164 161° South 380 437 16,900 2,460 Climbing Atlanta Center
02:42PM 32.9611 -84.2692 159° South 397 457 19,500 2,280 Climbing Atlanta Center
02:43PM 32.8653 -84.2267 160° South 403 464 21,500 2,220 Climbing Atlanta Center
02:45PM 32.6336 -84.1153 158° South 440 506 26,200 2,340 Climbing Atlanta Center
02:46PM 32.5167 -84.0633 159° South 451 519 28,600 2,400 Climbing Atlanta Center
02:47PM 32.3958 -84.0044 158° South 451 519 31,000 2,280 Climbing Atlanta Center
02:49PM 32.1356 -83.8861 159° South 454 522 35,800 1,800 Climbing Jacksonville Center
02:50PM 32.0086 -83.8286 159° South 472 543 36,800 600 Climbing Jacksonville Center
02:51PM 31.8775 -83.7661 158° South 495 570 37,000 60 Climbing Jacksonville Center
02:52PM 31.7381 -83.6986 158° South 519 597 37,000  Level Jacksonville Center
02:53PM 31.5797 -83.6364 161° South 533 613 37,000  Level Jacksonville Center
02:54PM 31.4403 -83.5744 159° South 541 623 37,000  Level Jacksonville Center
02:55PM 31.3006 -83.5103 159° South 546 628 37,000  Level Jacksonville Center
02:56PM 31.1589 -83.4486 160° South 546 628 37,000  Level Jacksonville Center
02:57PM 31.0214 -83.3872 159° South 546 628 37,000  Level Jacksonville Center
02:58PM 30.8839 -83.3258 159° South 541 623 37,000  Level Jacksonville Center
02:59PM 30.7608 -83.2672 158° South 536 617 37,000  Level Jacksonville Center
03:00PM 30.6231 -83.1992 157° South 536 617 37,000  Level Jacksonville Center
03:01PM 30.4833 -83.1289 157° South 536 617 37,000  Level Jacksonville Center
03:02PM 30.3436 -83.0611 157° South 536 617 37,000  Level Jacksonville Center
03:03PM 30.2081 -82.9911 156° South 536 617 37,000  Level Jacksonville Center
03:04PM 30.0661 -82.9214 157° South 541 623 37,000  Level Jacksonville Center
03:05PM 29.9117 -82.8469 157° South 546 628 37,000  Level Jacksonville Center
03:06PM 29.7717 -82.7778 157° South 546 628 37,000  Level Jacksonville Center
03:07PM 29.6339 -82.7108 157° South 541 623 37,000  Level Jacksonville Center
03:08PM 29.4917 -82.6708 166° South 528 608 37,000  Level Jacksonville Center
03:09PM 29.3519 -82.6306 166° South 528 608 37,000  Level Jacksonville Center
03:10PM 29.2097 -82.5975 169° South 523 602 37,000  Level Jacksonville Center
03:11PM 29.0678 -82.5622 168° South 523 602 37,000  Level Jacksonville Center
03:12PM 28.9278 -82.5272 168° South 523 602 37,000  Level Jacksonville Center
03:13PM 28.7878 -82.4922 168° South 523 602 37,000  Level Jacksonville Center
03:14PM 28.6731 -82.4667 169° South 499 574 37,000  Level Jacksonville Center
03:15PM 28.5394 -82.4317 167° South 489 563 37,000 -480 Level Jacksonville Center
03:16PM 28.4097 -82.3992 168° South 489 563 36,100 -1,020 Descending Jacksonville Center
03:17PM 28.2783 -82.3694 169° South 489 563 35,000 -360 Descending Jacksonville Center
03:19PM 27.9686 -82.2869 167° South 483 556 35,000  Level Miami Center
03:20PM 27.8367 -82.2431 164° South 483 556 35,000 -120 Level Miami Center
03:21PM 27.7069 -82.1947 162° South 490 564 34,800 -960 Descending Miami Center
03:22PM 27.5731 -82.1508 164° South 490 564 33,100 -2,280 Descending Miami Center
03:23PM 27.4392 -82.1050 163° South 495 570 30,300 -2,760 Descending Miami Center
03:24PM 27.3278 -82.0672 163° South 480 552 27,600 -2,820 Descending Miami Center
03:25PM 27.2039 -82.0267 164° South 429 494 24,700 -1,800 Descending Miami Center
03:26PM 27.0925 -81.9892 163° South 422 486 24,000 -420 Descending Miami Center
03:27PM 26.9750 -81.9511 164° South 422 486 23,900 -1,200 Descending Miami Center
03:28PM 26.8606 -81.8833 152° Southeast 440 506 21,600 -2,040 Descending Miami Center
03:29PM 26.7658 -81.7794 136° Southeast 461 531 19,900 -1,320 Descending Miami Center
03:30PM 26.7056 -81.6467 117° Southeast 466 536 19,000 -480 Descending Miami Center
03:31PM 26.7186 -81.5008 84° East 441 507 19,000 -420 Level Miami Center
03:32PM 26.7525 -81.3533 76° East 468 539 18,200 -1,860 Descending Miami Center
03:33PM 26.7883 -81.2058 75° East 483 556 15,300 -2,760 Descending Miami Center
03:34PM 26.8175 -81.0719 76° East 461 531 12,700 -2,340 Descending Miami Center
03:35PM 26.8317 -80.9328 83° East 444 511 10,700 -1,380 Descending Miami Center
03:36PM 26.8208 -80.8019 95° East 425 489 10,000 -360 Descending Miami Center
03:37PM 26.7778 -80.6936 114° Southeast 393 452 10,000 -540 Level Miami Center
03:38PM 26.7464 -80.6111 113° Southeast 338 389 9,000 -1,020 Descending Miami Center
03:39PM 26.7092 -80.5147 113° Southeast 313 360 8,000 -540 Descending Miami Center
03:40PM 26.6800 -80.4300 111° Southeast 294 338 8,000  Level Miami Center
03:41PM 26.6486 -80.3456 113° Southeast 294 338 8,000 -60 Level Miami Center
03:42PM 26.6153 -80.2586 113° Southeast 300 345 7,900 -840 Descending Miami Center
03:43PM 26.5856 -80.1811 113° Southeast 300 345 6,400 -1,740 Descending Miami Center
03:44PM 26.5856 -80.0881 90° East 270 311 4,500 -1,920 Descending Miami Center
03:46PM 26.6667 -80.0833 50° Northeast  Level FlightAware Approximate
03:53PM 26.6832 -80.0956 50° Northeast  Level Estimated
03:54PM 26.6832 -80.0956 50° Northeast  Level Estimated
03:55PM 26.6832 -80.0956 50° Northeast  Level Estimated
03:56PM 26.6832 -80.0956 50° Northeast  Level Estimated
03:57PM 26.6832 -80.0956 50° Northeast  Level Estimated
03:58PM 26.6832 -80.0956 50° Northeast  Level Estimated
03:59PM 26.6832 -80.0956 50° Northeast  Level Estimated